Time;durP1;ratioP1;P1;durP2;ratioP2;P2;SDS_P1;SDS_P2;PMS_P1;PMS_P2;Temp;Humidity;BMP_temperature;BMP_pressure;BME280_temperature;BME280_humidity;BME280_pressure;Samples;Min_cycle;Max_cycle;Signal;HPM_P1;HPM_P2
2023/05/23 00:00:44;;;;;;;21.75;14.90;;;19.80;99.90;;;;;;7388156;19;20157;-75
2023/05/23 00:03:10;;;;;;;18.98;13.40;;;20.00;99.90;;;;;;7388537;19;20159;-76
2023/05/23 00:05:35;;;;;;;22.77;14.68;;;20.00;99.90;;;;;;7388316;19;20151;-76
2023/05/23 00:08:01;;;;;;;21.60;14.20;;;20.00;99.90;;;;;;7387062;19;20127;-76
2023/05/23 00:10:27;;;;;;;23.83;15.20;;;20.00;99.90;;;;;;7389495;19;20146;-75
2023/05/23 00:12:53;;;;;;;24.08;16.77;;;20.00;99.90;;;;;;7387422;19;20151;-76
2023/05/23 00:15:19;;;;;;;26.45;16.23;;;20.00;99.90;;;;;;7387155;19;20138;-76
2023/05/23 00:17:46;;;;;;;26.65;16.90;;;20.00;99.90;;;;;;7387335;19;20135;-76
2023/05/23 00:20:12;;;;;;;24.88;16.92;;;20.00;99.90;;;;;;7387704;19;20138;-75
2023/05/23 00:22:41;;;;;;;28.60;17.88;;;19.70;99.90;;;;;;7387923;19;20138;-76
2023/05/23 00:25:08;;;;;;;27.50;18.67;;;19.80;99.90;;;;;;7387530;19;20595;-75
2023/05/23 00:27:35;;;;;;;30.65;18.67;;;19.90;99.90;;;;;;7385484;19;20150;-75
2023/05/23 00:30:01;;;;;;;29.98;18.90;;;20.00;99.90;;;;;;7385779;19;20545;-75
2023/05/23 00:32:27;;;;;;;34.60;20.63;;;20.00;99.90;;;;;;7385634;19;20951;-76
2023/05/23 00:34:54;;;;;;;29.05;18.65;;;19.90;99.90;;;;;;7386275;19;20138;-76
2023/05/23 00:37:23;;;;;;;28.40;18.42;;;19.80;99.90;;;;;;7386663;19;20484;-75
2023/05/23 00:39:49;;;;;;;28.77;18.58;;;19.80;99.90;;;;;;7385664;19;20127;-76
2023/05/23 00:42:15;;;;;;;33.05;20.30;;;19.80;99.90;;;;;;7385315;19;20174;-75
2023/05/23 00:44:41;;;;;;;33.40;20.70;;;19.80;99.90;;;;;;7387101;19;20126;-75
2023/05/23 00:47:08;;;;;;;31.58;19.73;;;19.90;99.90;;;;;;7386160;19;20482;-76
2023/05/23 00:49:34;;;;;;;35.35;20.92;;;19.90;99.90;;;;;;7385183;19;20142;-75
2023/05/23 00:52:00;;;;;;;30.95;19.30;;;20.00;99.90;;;;;;7386620;19;20593;-75
2023/05/23 00:54:30;;;;;;;32.40;19.13;;;19.80;99.90;;;;;;7386820;19;20138;-75
2023/05/23 00:56:57;;;;;;;35.47;20.33;;;19.80;99.90;;;;;;7386195;19;20168;-76
2023/05/23 00:59:25;;;;;;;35.55;21.10;;;19.70;99.90;;;;;;7388449;19;20134;-76
2023/05/23 01:01:51;;;;;;;34.13;21.38;;;19.80;99.90;;;;;;7385718;19;20150;-76
2023/05/23 01:04:18;;;;;;;38.72;22.33;;;20.00;99.90;;;;;;7386600;19;20214;-76
2023/05/23 01:06:47;;;;;;;37.53;22.30;;;20.00;99.90;;;;;;7384617;19;20161;-75
2023/05/23 01:09:16;;;;;;;37.13;20.95;;;19.80;99.90;;;;;;7381808;19;20594;-76
2023/05/23 01:12:00;;;;;;;32.03;20.73;;;19.80;99.90;;;;;;7386106;19;20130;-77
2023/05/23 01:15:25;;;;;;;34.10;20.67;;;19.70;99.90;;;;;;7384797;19;20458;-76
2023/05/23 01:18:11;;;;;;;38.15;22.40;;;19.70;99.90;;;;;;7375573;19;20166;-75
2023/05/23 01:20:44;;;;;;;37.78;23.15;;;19.90;99.90;;;;;;7380499;19;20150;-75
2023/05/23 01:23:30;;;;;;;35.78;21.42;;;19.70;99.90;;;;;;7384625;19;20142;-76
2023/05/23 01:25:58;;;;;;;38.10;21.60;;;19.70;99.90;;;;;;7384078;19;20151;-75
2023/05/23 01:28:31;;;;;;;36.60;22.42;;;19.80;99.90;;;;;;7384902;19;20154;-75
2023/05/23 01:30:59;;;;;;;34.28;21.65;;;19.80;99.90;;;;;;7384621;19;20146;-75
2023/05/23 01:33:27;;;;;;;35.85;23.00;;;19.70;99.90;;;;;;7385298;19;20169;-76
2023/05/23 01:35:55;;;;;;;39.95;23.30;;;19.70;99.90;;;;;;7382709;19;20167;-76
2023/05/23 01:38:21;;;;;;;38.15;24.08;;;19.70;99.90;;;;;;7386418;19;20135;-75
2023/05/23 01:40:46;;;;;;;40.35;25.42;;;19.80;99.90;;;;;;7382921;19;20176;-76
2023/05/23 01:43:12;;;;;;;38.88;23.27;;;19.70;99.90;;;;;;7383173;19;20142;-76
2023/05/23 01:45:38;;;;;;;43.03;24.45;;;19.70;99.90;;;;;;7385219;19;20158;-76
2023/05/23 01:48:05;;;;;;;38.72;23.52;;;19.60;99.90;;;;;;7384110;19;20135;-75
2023/05/23 01:50:31;;;;;;;38.70;23.75;;;19.70;99.90;;;;;;7383924;19;20138;-75
2023/05/23 01:52:58;;;;;;;43.10;26.45;;;19.60;99.90;;;;;;7389772;19;20474;-73
2023/05/23 01:55:25;;;;;;;40.67;24.20;;;19.50;99.90;;;;;;7390605;19;20218;-75
2023/05/23 01:57:53;;;;;;;38.58;24.02;;;19.50;99.90;;;;;;7392404;19;20201;-75
2023/05/23 02:00:19;;;;;;;40.60;25.05;;;19.50;99.90;;;;;;7390762;19;20139;-75
2023/05/23 02:02:46;;;;;;;38.13;24.60;;;19.50;99.90;;;;;;7390955;19;20467;-75
2023/05/23 02:05:11;;;;;;;37.70;24.92;;;19.30;99.90;;;;;;7390074;19;20206;-75
2023/05/23 02:07:37;;;;;;;40.28;24.98;;;19.30;99.90;;;;;;7389440;19;20233;-75
2023/05/23 02:10:07;;;;;;;42.58;25.80;;;19.50;99.90;;;;;;7391047;19;20134;-76
2023/05/23 02:12:33;;;;;;;45.20;26.30;;;19.30;99.90;;;;;;7388873;19;20609;-76
2023/05/23 02:14:59;;;;;;;43.25;25.83;;;19.30;99.90;;;;;;7390779;19;20131;-75
2023/05/23 02:17:25;;;;;;;39.22;25.13;;;19.50;99.90;;;;;;7390575;19;20768;-75
2023/05/23 02:19:50;;;;;;;45.05;26.52;;;19.50;99.90;;;;;;7387447;19;20147;-75
2023/05/23 02:22:16;;;;;;;44.13;26.77;;;19.50;99.90;;;;;;7390307;19;20590;-76
2023/05/23 02:24:43;;;;;;;42.10;26.58;;;19.60;99.90;;;;;;7389218;19;20565;-75
2023/05/23 02:27:09;;;;;;;37.92;24.13;;;19.30;99.90;;;;;;7389841;19;20150;-75
2023/05/23 02:29:35;;;;;;;39.28;25.52;;;19.30;99.90;;;;;;7391059;19;20157;-75
2023/05/23 02:32:01;;;;;;;48.72;28.77;;;19.30;99.90;;;;;;7388728;19;20123;-75
2023/05/23 02:34:26;;;;;;;44.85;26.02;;;19.40;99.90;;;;;;7392972;19;20126;-75
2023/05/23 02:36:52;;;;;;;49.03;28.40;;;19.40;99.90;;;;;;7390646;19;20123;-75
2023/05/23 02:39:18;;;;;;;45.72;27.98;;;19.40;99.90;;;;;;7390765;19;20214;-76
2023/05/23 02:41:43;;;;;;;41.08;27.23;;;19.40;99.90;;;;;;7388346;19;20174;-77
2023/05/23 02:44:09;;;;;;;44.20;29.15;;;19.30;99.90;;;;;;7390462;19;20156;-76
2023/05/23 02:46:35;;;;;;;43.33;30.02;;;19.40;99.90;;;;;;7389567;19;20782;-76
2023/05/23 02:49:01;;;;;;;45.22;29.02;;;19.50;99.90;;;;;;7389370;19;20138;-75
2023/05/23 02:51:26;;;;;;;41.65;27.65;;;19.40;99.90;;;;;;7388879;19;20133;-76
2023/05/23 02:53:52;;;;;;;46.00;28.85;;;19.40;99.90;;;;;;7390195;19;20135;-76
2023/05/23 02:56:19;;;;;;;43.53;27.27;;;19.50;99.90;;;;;;7389366;19;20119;-75
2023/05/23 02:58:44;;;;;;;40.30;27.02;;;19.50;99.90;;;;;;7387393;19;20127;-75
2023/05/23 03:01:10;;;;;;;44.28;28.85;;;19.50;99.90;;;;;;7388667;19;20134;-76
2023/05/23 03:03:36;;;;;;;42.80;27.60;;;19.50;99.90;;;;;;7388205;19;20131;-76
2023/05/23 03:06:03;;;;;;;44.90;29.92;;;19.40;99.90;;;;;;7389554;19;20131;-75
2023/05/23 03:08:29;;;;;;;51.08;29.33;;;19.10;99.90;;;;;;7388362;19;20146;-75
2023/05/23 03:10:55;;;;;;;45.00;28.35;;;19.30;99.90;;;;;;7389716;19;20146;-74
2023/05/23 03:13:21;;;;;;;43.25;27.83;;;19.30;99.90;;;;;;7389315;19;20187;-75
2023/05/23 03:15:48;;;;;;;44.53;30.38;;;19.30;99.90;;;;;;7388822;19;20126;-76
2023/05/23 03:18:13;;;;;;;49.38;29.75;;;19.40;99.90;;;;;;7389834;19;20470;-76
2023/05/23 03:20:39;;;;;;;45.35;29.40;;;19.50;99.90;;;;;;7388512;19;20134;-75
2023/05/23 03:23:05;;;;;;;45.25;29.95;;;19.40;99.90;;;;;;7385855;19;20153;-74
2023/05/23 03:25:30;;;;;;;41.80;28.05;;;19.40;99.90;;;;;;7389155;19;20127;-75
2023/05/23 03:27:57;;;;;;;43.08;28.65;;;19.40;99.90;;;;;;7388225;19;20122;-75
2023/05/23 03:30:22;;;;;;;40.88;27.40;;;19.50;99.90;;;;;;7388807;19;20134;-76
2023/05/23 03:32:48;;;;;;;42.38;28.45;;;19.40;99.90;;;;;;7388792;19;20131;-75
2023/05/23 03:35:14;;;;;;;39.90;26.17;;;19.40;99.90;;;;;;7388714;19;20131;-75
2023/05/23 03:37:40;;;;;;;38.17;26.05;;;19.30;99.90;;;;;;7388853;19;20162;-75
2023/05/23 03:40:07;;;;;;;36.75;25.98;;;19.30;99.90;;;;;;7383962;19;20134;-76
2023/05/23 03:42:32;;;;;;;38.58;26.23;;;19.20;99.90;;;;;;7385424;19;20182;-76
2023/05/23 03:44:58;;;;;;;36.45;24.67;;;19.30;99.90;;;;;;7387867;19;20906;-75
2023/05/23 03:47:24;;;;;;;41.55;26.13;;;19.20;99.90;;;;;;7390699;19;20149;-74
2023/05/23 03:49:50;;;;;;;36.25;24.70;;;19.30;99.90;;;;;;7386792;19;20465;-75
2023/05/23 03:52:17;;;;;;;39.97;25.80;;;19.30;99.90;;;;;;7386835;19;20166;-75
2023/05/23 03:54:42;;;;;;;35.95;24.00;;;19.40;99.90;;;;;;7387558;19;20166;-76
2023/05/23 03:57:08;;;;;;;37.90;23.70;;;19.30;99.90;;;;;;7385344;19;20626;-75
2023/05/23 03:59:34;;;;;;;35.65;23.15;;;19.20;99.90;;;;;;7386197;19;20151;-75
2023/05/23 04:02:00;;;;;;;31.63;22.77;;;19.10;99.90;;;;;;7385620;19;20146;-76
2023/05/23 04:04:29;;;;;;;35.83;23.95;;;19.00;99.90;;;;;;7388429;19;20220;-75
2023/05/23 04:06:55;;;;;;;34.97;23.10;;;19.10;99.90;;;;;;7388129;19;20222;-76
2023/05/23 04:09:21;;;;;;;36.22;26.35;;;19.30;99.90;;;;;;7388888;19;20138;-75
2023/05/23 04:11:47;;;;;;;34.97;24.70;;;19.30;99.90;;;;;;7387511;19;20135;-75
2023/05/23 04:14:13;;;;;;;37.72;24.30;;;19.30;99.90;;;;;;7384344;19;20134;-76
2023/05/23 04:16:40;;;;;;;35.90;24.65;;;19.30;99.90;;;;;;7388922;19;20139;-76
2023/05/23 04:19:07;;;;;;;34.40;24.20;;;19.30;99.90;;;;;;7388143;19;20546;-76
2023/05/23 04:21:35;;;;;;;34.75;24.38;;;19.10;99.90;;;;;;7386330;19;20517;-76
2023/05/23 04:24:02;;;;;;;36.88;25.65;;;19.20;99.90;;;;;;7386932;19;20160;-75
2023/05/23 04:26:27;;;;;;;33.97;24.17;;;19.20;99.90;;;;;;7387395;19;20135;-75
2023/05/23 04:28:53;;;;;;;35.47;23.98;;;19.30;99.90;;;;;;7383184;19;20153;-75
2023/05/23 04:31:22;;;;;;;32.97;23.77;;;19.20;99.90;;;;;;7388195;19;20137;-76
2023/05/23 04:33:48;;;;;;;32.40;23.73;;;19.10;99.90;;;;;;7385747;19;20148;-77
2023/05/23 04:36:14;;;;;;;34.55;24.35;;;19.20;99.90;;;;;;7386440;19;20131;-76
2023/05/23 04:38:40;;;;;;;34.63;23.27;;;19.30;99.90;;;;;;7385934;19;20134;-75
2023/05/23 04:41:08;;;;;;;34.10;23.23;;;19.20;99.90;;;;;;7388124;19;20143;-76
2023/05/23 04:43:41;;;;;;;33.35;23.23;;;19.30;99.90;;;;;;7385928;19;20574;-75
2023/05/23 04:46:08;;;;;;;32.35;23.35;;;19.30;99.90;;;;;;7386808;19;20162;-76
2023/05/23 04:48:36;;;;;;;33.63;23.00;;;19.20;99.90;;;;;;7384319;19;20150;-76
2023/05/23 04:51:05;;;;;;;34.45;22.65;;;19.30;99.90;;;;;;7386836;19;20612;-76
2023/05/23 04:53:30;;;;;;;33.33;24.25;;;19.30;99.90;;;;;;7385169;19;20142;-76
2023/05/23 04:56:00;;;;;;;32.28;23.05;;;19.40;99.90;;;;;;7386415;19;20174;-76
2023/05/23 04:58:26;;;;;;;32.42;22.10;;;19.40;99.90;;;;;;7389044;19;20471;-76
2023/05/23 05:00:51;;;;;;;33.33;22.52;;;19.30;99.90;;;;;;7388468;19;20459;-75
2023/05/23 05:03:17;;;;;;;30.98;22.15;;;19.30;99.90;;;;;;7385163;19;20229;-76
2023/05/23 05:05:43;;;;;;;32.17;23.15;;;19.20;99.90;;;;;;7385957;19;20135;-76
2023/05/23 05:08:08;;;;;;;31.13;22.98;;;19.30;99.90;;;;;;7384258;19;20488;-75
2023/05/23 05:10:34;;;;;;;32.30;22.88;;;19.40;99.90;;;;;;7385558;19;20153;-75
2023/05/23 05:13:00;;;;;;;31.02;22.23;;;19.40;99.90;;;;;;7385611;19;20508;-76
2023/05/23 05:15:26;;;;;;;31.30;21.77;;;19.40;99.90;;;;;;7385143;19;20146;-76
2023/05/23 05:17:53;;;;;;;33.10;23.58;;;19.30;99.90;;;;;;7385434;19;20235;-76
2023/05/23 05:20:18;;;;;;;32.95;21.67;;;19.40;99.90;;;;;;7385213;19;20150;-76
2023/05/23 05:22:45;;;;;;;30.05;22.10;;;19.40;99.90;;;;;;7385845;19;20138;-76
2023/05/23 05:25:10;;;;;;;33.65;21.85;;;19.30;99.90;;;;;;7384763;19;20147;-75
2023/05/23 05:27:36;;;;;;;28.45;22.15;;;19.30;99.90;;;;;;7391521;19;20483;-75
2023/05/23 05:30:07;;;;;;;29.55;21.52;;;19.40;99.90;;;;;;7390680;19;20154;-76
2023/05/23 05:32:33;;;;;;;33.92;22.30;;;19.50;99.90;;;;;;7388106;19;20146;-75
2023/05/23 05:35:00;;;;;;;33.22;22.42;;;19.40;99.90;;;;;;7389581;19;20576;-75
2023/05/23 05:37:25;;;;;;;31.88;23.55;;;19.30;99.90;;;;;;7390843;19;20230;-76
2023/05/23 05:39:53;;;;;;;29.90;21.65;;;19.30;99.90;;;;;;7388534;19;20158;-75
2023/05/23 05:42:20;;;;;;;29.95;22.85;;;19.20;99.90;;;;;;7391242;19;20481;-76
2023/05/23 05:44:46;;;;;;;29.38;21.42;;;19.10;99.90;;;;;;7388823;19;20161;-75
2023/05/23 05:47:12;;;;;;;30.00;22.45;;;19.30;99.90;;;;;;7390548;19;20146;-75
2023/05/23 05:49:38;;;;;;;33.33;23.25;;;19.30;99.90;;;;;;7390256;19;20123;-75
2023/05/23 05:52:06;;;;;;;31.95;21.63;;;19.40;99.90;;;;;;7390120;19;20168;-76
2023/05/23 05:54:31;;;;;;;29.77;22.50;;;19.30;99.90;;;;;;7391164;19;20138;-75
2023/05/23 05:56:59;;;;;;;29.25;21.00;;;19.20;99.90;;;;;;7389676;19;20593;-75
2023/05/23 05:59:25;;;;;;;32.05;22.33;;;19.00;99.90;;;;;;7389849;19;20127;-75
2023/05/23 06:01:54;;;;;;;30.38;21.80;;;19.30;99.90;;;;;;7386982;19;20198;-75
2023/05/23 06:04:19;;;;;;;32.95;23.35;;;19.20;99.90;;;;;;7391875;19;20130;-75
2023/05/23 06:06:45;;;;;;;29.02;21.70;;;19.20;99.90;;;;;;7389984;19;20180;-76
2023/05/23 06:09:11;;;;;;;27.88;21.25;;;19.30;99.90;;;;;;7387990;19;20642;-75
2023/05/23 06:11:39;;;;;;;29.95;21.95;;;19.50;99.90;;;;;;7387033;19;20134;-74
2023/05/23 06:14:06;;;;;;;32.25;23.42;;;19.50;99.90;;;;;;7387384;19;20180;-76
2023/05/23 06:16:32;;;;;;;29.25;22.73;;;19.50;99.90;;;;;;7389097;19;20135;-74
2023/05/23 06:18:58;;;;;;;31.45;22.02;;;19.50;99.90;;;;;;7391925;19;20490;-74
2023/05/23 06:21:24;;;;;;;32.40;23.98;;;19.50;99.90;;;;;;7383602;19;20532;-75
2023/05/23 06:23:51;;;;;;;32.45;23.08;;;19.30;99.90;;;;;;7385552;19;20158;-75
2023/05/23 06:26:17;;;;;;;32.42;23.75;;;19.40;99.90;;;;;;7387454;19;20218;-75
2023/05/23 06:28:45;;;;;;;27.10;21.35;;;19.40;99.90;;;;;;7389014;19;20130;-75
2023/05/23 06:31:11;;;;;;;27.25;22.33;;;19.50;99.90;;;;;;7388929;19;20164;-74
2023/05/23 06:33:37;;;;;;;30.98;24.33;;;19.40;99.90;;;;;;7388584;19;20143;-76
2023/05/23 06:36:03;;;;;;;31.30;24.20;;;19.60;99.90;;;;;;7389568;19;20601;-75
2023/05/23 06:38:32;;;;;;;32.78;25.30;;;19.50;99.90;;;;;;7388993;19;20495;-74
2023/05/23 06:40:58;;;;;;;31.08;22.42;;;19.40;99.90;;;;;;7387962;19;20165;-74
2023/05/23 06:43:24;;;;;;;31.75;23.95;;;19.40;99.90;;;;;;7383996;19;20166;-73
2023/05/23 06:45:50;;;;;;;31.45;23.95;;;19.20;99.90;;;;;;7388651;19;20598;-74
2023/05/23 06:48:16;;;;;;;31.45;24.80;;;19.30;99.90;;;;;;7388596;19;20797;-74
2023/05/23 06:50:42;;;;;;;34.33;24.00;;;19.40;99.90;;;;;;7390884;19;20146;-74
2023/05/23 06:53:08;;;;;;;33.40;25.13;;;19.40;99.90;;;;;;7388245;19;20141;-74
2023/05/23 06:55:33;;;;;;;31.80;22.85;;;19.20;99.90;;;;;;7389221;19;20174;-74
2023/05/23 06:58:02;;;;;;;31.95;23.88;;;19.00;99.90;;;;;;7389535;19;20175;-74
2023/05/23 07:00:31;;;;;;;29.35;23.88;;;19.10;99.90;;;;;;7391155;19;20610;-74
2023/05/23 07:03:02;;;;;;;30.70;23.83;;;19.20;99.90;;;;;;7387972;19;20726;-75
2023/05/23 07:05:28;;;;;;;31.38;23.88;;;19.20;99.90;;;;;;7388317;19;20160;-74
2023/05/23 07:07:54;;;;;;;31.25;23.25;;;19.10;99.90;;;;;;7387263;19;21008;-73
2023/05/23 07:10:20;;;;;;;27.73;20.42;;;18.90;99.90;;;;;;7388211;19;20146;-74
2023/05/23 07:12:46;;;;;;;30.55;23.50;;;18.80;99.90;;;;;;7388207;19;20463;-74
2023/05/23 07:15:13;;;;;;;30.90;22.23;;;18.90;99.90;;;;;;7387346;19;20143;-73
2023/05/23 07:17:39;;;;;;;30.10;22.45;;;19.00;99.90;;;;;;7389507;19;20139;-75
2023/05/23 07:20:07;;;;;;;27.63;21.77;;;19.10;99.90;;;;;;7389034;19;20598;-73
2023/05/23 07:22:32;;;;;;;29.27;22.52;;;19.10;99.90;;;;;;7391311;19;20155;-73
2023/05/23 07:24:58;;;;;;;26.73;20.58;;;19.00;99.90;;;;;;7387253;19;20160;-73
2023/05/23 07:27:25;;;;;;;26.13;20.17;;;18.80;99.90;;;;;;7390377;19;20139;-73
2023/05/23 07:29:51;;;;;;;25.40;19.30;;;18.80;99.90;;;;;;7389541;19;20487;-75
2023/05/23 07:32:17;;;;;;;22.27;17.92;;;18.90;99.90;;;;;;7389980;19;20142;-74
2023/05/23 07:34:43;;;;;;;26.77;16.65;;;18.80;99.90;;;;;;7390998;19;20206;-74
2023/05/23 07:37:09;;;;;;;20.83;16.67;;;18.90;99.90;;;;;;7390618;19;20135;-73
2023/05/23 07:39:34;;;;;;;20.55;15.35;;;18.90;99.90;;;;;;7389443;19;20218;-75
2023/05/23 07:42:00;;;;;;;19.65;15.13;;;19.00;99.90;;;;;;7386309;19;20189;-74
2023/05/23 07:44:27;;;;;;;19.17;16.33;;;19.10;99.90;;;;;;7389096;19;20474;-74
2023/05/23 07:46:53;;;;;;;21.73;16.55;;;19.10;99.90;;;;;;7388924;19;20138;-73
2023/05/23 07:49:18;;;;;;;22.45;17.80;;;19.10;99.90;;;;;;7384982;19;20464;-74
2023/05/23 07:51:44;;;;;;;26.77;19.25;;;18.80;99.90;;;;;;7389679;19;20169;-73
2023/05/23 07:54:10;;;;;;;23.88;19.20;;;18.80;99.90;;;;;;7388874;19;20142;-73
2023/05/23 07:56:37;;;;;;;23.23;18.67;;;18.80;99.90;;;;;;7389527;19;20135;-74
2023/05/23 07:59:03;;;;;;;22.65;19.05;;;18.70;99.90;;;;;;7388760;19;20159;-74
2023/05/23 08:01:30;;;;;;;21.35;17.92;;;19.00;99.90;;;;;;7387776;19;20165;-74
2023/05/23 08:03:56;;;;;;;21.90;17.45;;;19.20;99.90;;;;;;7388021;19;20570;-75
2023/05/23 08:06:22;;;;;;;21.73;16.13;;;19.30;99.90;;;;;;7389208;19;20606;-73
2023/05/23 08:08:47;;;;;;;20.10;16.10;;;19.30;99.90;;;;;;7386504;19;20150;-73
2023/05/23 08:11:14;;;;;;;20.17;15.40;;;19.30;99.90;;;;;;7389195;19;20135;-74
2023/05/23 08:13:40;;;;;;;17.73;14.10;;;19.20;99.90;;;;;;7386542;19;20616;-74
2023/05/23 08:16:05;;;;;;;16.50;14.68;;;19.10;99.90;;;;;;7387986;19;20153;-74
2023/05/23 08:18:31;;;;;;;17.23;14.05;;;19.00;99.90;;;;;;7389881;19;20157;-74
2023/05/23 08:20:57;;;;;;;19.17;14.70;;;19.00;99.90;;;;;;7386594;19;20138;-73
2023/05/23 08:23:23;;;;;;;19.77;14.57;;;19.10;99.90;;;;;;7388320;19;20142;-74
2023/05/23 08:25:48;;;;;;;17.70;13.82;;;19.00;99.90;;;;;;7387277;19;20598;-75
2023/05/23 08:28:14;;;;;;;17.38;14.00;;;18.80;99.90;;;;;;7385978;19;20146;-75
2023/05/23 08:30:41;;;;;;;17.77;13.70;;;18.80;99.90;;;;;;7389714;19;20135;-75
2023/05/23 08:33:07;;;;;;;16.27;13.20;;;18.80;99.90;;;;;;7388440;19;20143;-74
2023/05/23 08:35:34;;;;;;;19.77;13.75;;;18.70;99.90;;;;;;7385975;19;20165;-75
2023/05/23 08:38:01;;;;;;;17.17;13.18;;;18.80;99.90;;;;;;7387065;19;20137;-74
2023/05/23 08:40:30;;;;;;;18.02;13.90;;;18.80;99.90;;;;;;7387383;19;20610;-75
2023/05/23 08:42:56;;;;;;;15.93;12.32;;;18.90;99.90;;;;;;7382681;19;20174;-75
2023/05/23 08:45:22;;;;;;;15.10;12.35;;;18.90;99.90;;;;;;7386922;19;20135;-74
2023/05/23 08:47:51;;;;;;;16.15;12.93;;;18.80;99.90;;;;;;7386075;19;20143;-75
2023/05/23 08:50:17;;;;;;;14.65;12.52;;;18.80;99.90;;;;;;7386990;19;20151;-73
2023/05/23 08:52:54;;;;;;;14.63;11.82;;;18.80;99.90;;;;;;7385283;19;21850;-74
2023/05/23 08:55:26;;;;;;;17.60;12.82;;;18.70;99.90;;;;;;7386211;19;20501;-74
2023/05/23 08:57:52;;;;;;;15.15;11.70;;;18.60;99.90;;;;;;7384449;19;20606;-74
2023/05/23 09:00:19;;;;;;;16.30;12.18;;;18.80;99.90;;;;;;7384496;19;20222;-73
2023/05/23 09:02:45;;;;;;;14.00;11.63;;;18.90;99.90;;;;;;7385984;19;20150;-75
2023/05/23 09:05:12;;;;;;;14.27;11.20;;;18.90;99.90;;;;;;7386751;19;20142;-74
2023/05/23 09:07:45;;;;;;;13.45;11.82;;;18.90;99.90;;;;;;7389395;19;20215;-74
2023/05/23 09:10:11;;;;;;;14.15;11.48;;;18.60;99.90;;;;;;7386790;19;20146;-74
2023/05/23 09:12:37;;;;;;;13.13;11.30;;;18.40;99.90;;;;;;7386093;19;20135;-74
2023/05/23 09:15:08;;;;;;;13.63;11.00;;;18.70;99.90;;;;;;7383946;19;20173;-73
2023/05/23 09:17:35;;;;;;;12.85;11.20;;;18.70;99.90;;;;;;7385423;19;20158;-75
2023/05/23 09:20:03;;;;;;;14.05;11.52;;;18.80;99.90;;;;;;7384987;19;20218;-74
2023/05/23 09:22:29;;;;;;;14.27;11.27;;;19.00;99.90;;;;;;7384568;19;20164;-74
2023/05/23 09:24:56;;;;;;;13.90;10.68;;;19.10;99.90;;;;;;7385704;19;21453;-73
2023/05/23 09:27:23;;;;;;;14.48;11.00;;;19.00;99.90;;;;;;7386804;19;20197;-74
2023/05/23 09:29:49;;;;;;;14.68;10.90;;;19.00;99.90;;;;;;7382931;19;20157;-74
2023/05/23 09:32:19;;;;;;;17.10;12.38;;;18.70;99.90;;;;;;7382177;19;20155;-73
2023/05/23 09:34:59;;;;;;;13.73;10.70;;;18.70;99.90;;;;;;7384502;19;20625;-73
2023/05/23 09:37:54;;;;;;;14.25;10.85;;;18.80;99.90;;;;;;7385868;19;20151;-73
2023/05/23 09:40:20;;;;;;;12.20;10.48;;;18.60;99.90;;;;;;7393469;19;20602;-74
2023/05/23 09:42:47;;;;;;;14.73;11.05;;;18.70;99.90;;;;;;7382412;19;20174;-75
2023/05/23 09:45:15;;;;;;;11.85;9.80;;;18.90;99.90;;;;;;7385647;19;20598;-73
2023/05/23 09:47:55;;;;;;;12.50;10.20;;;18.90;99.90;;;;;;7387027;19;20135;-75
2023/05/23 09:50:21;;;;;;;14.35;10.60;;;19.00;99.90;;;;;;7384933;19;20154;-75
2023/05/23 09:52:48;;;;;;;13.70;10.52;;;19.00;99.90;;;;;;7385727;19;20198;-73
2023/05/23 09:55:14;;;;;;;11.63;9.15;;;19.30;99.90;;;;;;7385544;19;20226;-74
2023/05/23 09:57:41;;;;;;;13.30;10.27;;;19.30;99.90;;;;;;7385481;19;20162;-73
2023/05/23 10:00:10;;;;;;;12.77;9.90;;;19.20;99.90;;;;;;7383276;19;20154;-75
2023/05/23 10:02:52;;;;;;;12.10;9.27;;;19.10;99.90;;;;;;7384777;19;20159;-74
2023/05/23 10:05:30;;;;;;;12.25;9.57;;;19.10;99.90;;;;;;7384767;19;20504;-74
2023/05/23 10:08:00;;;;;;;11.82;9.32;;;19.00;99.90;;;;;;7382261;19;20250;-75
2023/05/23 10:10:31;;;;;;;14.02;9.77;;;19.10;99.90;;;;;;7383888;19;20146;-75
2023/05/23 10:13:00;;;;;;;10.93;8.63;;;19.20;99.90;;;;;;7388112;19;20585;-74
2023/05/23 10:15:33;;;;;;;14.15;9.85;;;19.20;99.90;;;;;;7391075;19;20241;-75
2023/05/23 10:18:25;;;;;;;10.48;7.93;;;19.10;99.90;;;;;;7387955;19;20185;-75
2023/05/23 10:20:55;;;;;;;11.48;9.43;;;19.30;99.90;;;;;;7390069;19;20535;-77
2023/05/23 10:23:20;;;;;;;12.20;9.88;;;19.40;99.90;;;;;;7389106;19;20156;-76
2023/05/23 10:25:47;;;;;;;10.30;8.95;;;19.60;99.90;;;;;;7390223;19;20495;-74
2023/05/23 10:28:14;;;;;;;11.82;8.15;;;19.90;99.90;;;;;;7389423;19;20214;-75
2023/05/23 10:30:40;;;;;;;10.30;8.63;;;19.90;99.90;;;;;;7390258;19;20157;-75
2023/05/23 10:33:07;;;;;;;9.60;7.00;;;19.80;99.90;;;;;;7387682;19;20146;-74
2023/05/23 10:35:57;;;;;;;8.27;7.30;;;19.80;99.90;;;;;;7385581;19;20725;-76
2023/05/23 10:38:35;;;;;;;10.45;7.07;;;19.80;99.90;;;;;;7385391;19;20221;-74
2023/05/23 10:41:17;;;;;;;9.80;7.85;;;20.00;99.90;;;;;;7389171;19;20229;-76
2023/05/23 10:44:23;;;;;;;8.65;7.25;;;20.00;99.90;;;;;;7395308;19;20589;-74
2023/05/23 10:47:02;;;;;;;9.43;6.85;;;19.90;99.90;;;;;;7389098;19;20217;-73
2023/05/23 10:49:50;;;;;;;7.30;6.53;;;19.80;99.90;;;;;;7388618;19;20149;-76
2023/05/23 10:52:17;;;;;;;7.43;6.63;;;19.70;99.90;;;;;;7388404;19;20504;-76
2023/05/23 10:54:44;;;;;;;7.85;6.32;;;19.70;99.90;;;;;;7393672;19;20167;-78
2023/05/23 10:57:11;;;;;;;9.18;7.43;;;19.80;99.90;;;;;;7395673;19;20495;-76
2023/05/23 10:59:41;;;;;;;7.43;6.72;;;19.80;99.90;;;;;;7392699;19;20643;-77
2023/05/23 11:02:19;;;;;;;7.32;6.22;;;19.80;99.90;;;;;;7387592;19;20467;-76
2023/05/23 11:04:44;;;;;;;8.57;7.00;;;19.80;99.90;;;;;;7391861;19;20150;-77
2023/05/23 11:07:32;;;;;;;7.82;6.38;;;19.90;99.90;;;;;;7389850;19;20140;-77
2023/05/23 11:10:15;;;;;;;7.88;6.47;;;20.00;99.90;;;;;;7387252;19;20155;-72
2023/05/23 11:12:43;;;;;;;7.30;6.32;;;19.90;99.90;;;;;;7388003;19;20489;-71
2023/05/23 11:15:20;;;;;;;7.18;6.47;;;20.00;99.90;;;;;;7387533;19;20154;-72
2023/05/23 11:17:53;;;;;;;8.98;6.25;;;20.00;99.90;;;;;;7392109;19;20131;-72
2023/05/23 11:20:22;;;;;;;8.15;6.35;;;20.10;99.90;;;;;;7385116;19;20146;-70
2023/05/23 11:23:01;;;;;;;7.97;5.53;;;20.10;99.90;;;;;;7386244;19;20146;-73
2023/05/23 11:25:54;;;;;;;7.18;5.53;;;20.10;99.90;;;;;;7387832;19;20138;-71
2023/05/23 11:28:20;;;;;;;10.93;7.88;;;20.20;99.90;;;;;;7387257;19;20499;-71
2023/05/23 11:30:51;;;;;;;9.07;7.85;;;20.20;99.90;;;;;;7389914;19;20134;-72
2023/05/23 11:33:22;;;;;;;8.23;6.35;;;20.30;99.90;;;;;;7387135;19;20152;-74
2023/05/23 11:35:50;;;;;;;6.32;5.53;;;20.40;99.90;;;;;;7388324;19;20146;-72
2023/05/23 11:38:17;;;;;;;6.63;5.90;;;20.40;99.90;;;;;;7388729;19;20150;-71
2023/05/23 11:40:47;;;;;;;6.82;6.10;;;20.40;99.90;;;;;;7391021;19;20138;-71
2023/05/23 11:43:14;;;;;;;8.38;6.85;;;20.40;99.90;;;;;;7382162;19;20165;-72
2023/05/23 11:45:45;;;;;;;7.20;6.45;;;20.30;99.90;;;;;;7388253;19;20602;-73
2023/05/23 11:48:15;;;;;;;7.32;6.50;;;20.20;99.90;;;;;;7387676;19;20577;-71
2023/05/23 11:50:52;;;;;;;7.65;6.85;;;20.20;99.90;;;;;;7389873;19;20434;-71
2023/05/23 11:53:20;;;;;;;7.53;6.28;;;20.30;99.90;;;;;;7386685;19;20218;-72
2023/05/23 11:55:58;;;;;;;8.30;7.30;;;20.30;99.90;;;;;;7387319;19;20161;-70
2023/05/23 11:58:38;;;;;;;8.27;6.80;;;20.50;99.90;;;;;;7389631;19;20146;-72
2023/05/23 12:01:09;;;;;;;8.07;6.55;;;20.50;99.90;;;;;;7388333;19;20234;-72
2023/05/23 12:03:47;;;;;;;7.20;6.40;;;20.30;99.90;;;;;;7391397;19;20142;-72
2023/05/23 12:06:24;;;;;;;8.85;6.78;;;20.50;99.90;;;;;;7387337;19;20613;-71
2023/05/23 12:08:51;;;;;;;8.07;6.20;;;20.50;99.90;;;;;;7385196;19;20146;-70
2023/05/23 12:11:17;;;;;;;7.30;5.90;;;20.50;99.90;;;;;;7387340;19;20603;-74
2023/05/23 12:13:43;;;;;;;7.75;6.88;;;20.40;99.90;;;;;;7386731;19;20164;-73
2023/05/23 12:16:16;;;;;;;8.40;6.28;;;20.40;99.90;;;;;;7389104;19;20172;-74
2023/05/23 12:18:42;;;;;;;7.05;5.45;;;20.40;99.90;;;;;;7389209;19;20145;-73
2023/05/23 12:21:08;;;;;;;6.50;5.38;;;20.30;99.90;;;;;;7387758;19;20149;-73
2023/05/23 12:23:34;;;;;;;6.50;5.70;;;20.50;99.90;;;;;;7385638;19;20583;-74
2023/05/23 12:26:03;;;;;;;8.63;6.55;;;20.40;99.90;;;;;;7386774;19;20141;-73
2023/05/23 12:28:43;;;;;;;6.82;5.72;;;20.60;99.90;;;;;;7384528;19;20139;-73
2023/05/23 12:31:12;;;;;;;7.15;5.38;;;21.00;99.90;;;;;;7388899;19;20138;-73
2023/05/23 12:33:40;;;;;;;5.82;5.22;;;20.90;99.90;;;;;;7385820;19;20514;-73
2023/05/23 12:36:06;;;;;;;6.70;4.88;;;21.00;99.90;;;;;;7385456;19;20155;-73